Time;durP1;ratioP1;P1;durP2;ratioP2;P2;SDS_P1;SDS_P2;PMS_P1;PMS_P2;Temp;Humidity;BMP_temperature;BMP_pressure;BME280_temperature;BME280_humidity;BME280_pressure;Samples;Min_cycle;Max_cycle;Signal;HPM_P1;HPM_P2
2023/01/06 00:00:32;;;;;;;7.80;4.67;;;12.00;25.70;;;;;;5047123;28;20439;-71
2023/01/06 00:02:58;;;;;;;7.73;4.33;;;12.00;25.80;;;;;;5046746;28;20904;-70
2023/01/06 00:05:23;;;;;;;9.63;4.23;;;12.00;23.20;;;;;;5029284;28;20467;-69
2023/01/06 00:07:50;;;;;;;7.80;4.50;;;12.10;23.90;;;;;;5047854;28;20197;-71
2023/01/06 00:10:16;;;;;;;10.23;3.87;;;12.10;23.50;;;;;;5048136;28;20635;-69
2023/01/06 00:12:46;;;;;;;6.53;4.03;;;12.10;24.20;;;;;;5045927;28;20457;-71
2023/01/06 00:15:12;;;;;;;4.60;3.43;;;12.10;24.20;;;;;;5049186;28;20553;-71
2023/01/06 00:17:38;;;;;;;6.10;4.20;;;12.10;23.70;;;;;;5028438;28;20953;-70
2023/01/06 00:20:04;;;;;;;4.23;3.40;;;12.20;23.40;;;;;;5048869;28;20458;-70
2023/01/06 00:22:29;;;;;;;4.67;3.60;;;12.20;23.60;;;;;;5045916;28;20296;-71
2023/01/06 00:24:55;;;;;;;7.13;4.00;;;12.20;23.80;;;;;;5051431;28;20506;-72
2023/01/06 00:27:20;;;;;;;4.80;3.50;;;12.20;24.30;;;;;;5034309;28;20192;-71
2023/01/06 00:29:48;;;;;;;5.70;3.20;;;12.20;23.70;;;;;;5052674;28;20185;-70
2023/01/06 00:32:14;;;;;;;5.53;3.10;;;12.20;24.00;;;;;;5029806;28;20192;-70
2023/01/06 00:34:39;;;;;;;4.23;2.90;;;12.10;24.30;;;;;;5034192;28;20435;-71
2023/01/06 00:37:05;;;;;;;4.20;3.10;;;12.10;24.70;;;;;;5050771;28;20578;-71
2023/01/06 00:39:31;;;;;;;4.73;3.20;;;12.20;25.70;;;;;;5034863;28;20177;-71
2023/01/06 00:42:02;;;;;;;5.13;3.30;;;12.10;24.60;;;;;;5048914;28;20718;-69
2023/01/06 00:44:32;;;;;;;5.70;3.07;;;12.10;25.60;;;;;;5051946;28;20651;-71
2023/01/06 00:46:58;;;;;;;5.57;3.43;;;12.10;25.40;;;;;;5050492;28;20825;-73
2023/01/06 00:49:23;;;;;;;4.00;2.97;;;12.10;25.70;;;;;;5052439;28;20426;-70
2023/01/06 00:51:49;;;;;;;3.37;3.00;;;12.10;26.10;;;;;;5049807;28;20623;-71
2023/01/06 00:54:15;;;;;;;6.47;3.17;;;12.20;24.40;;;;;;5051962;28;20256;-71
2023/01/06 00:56:44;;;;;;;6.40;3.27;;;12.20;23.60;;;;;;5031149;28;20268;-71
2023/01/06 00:59:12;;;;;;;3.67;2.97;;;12.20;23.60;;;;;;5057168;28;20495;-70
2023/01/06 01:01:37;;;;;;;6.30;3.10;;;12.20;22.80;;;;;;5052403;28;20523;-71
2023/01/06 01:04:03;;;;;;;3.20;2.77;;;12.20;22.10;;;;;;5048992;28;20415;-71
2023/01/06 01:06:29;;;;;;;3.83;2.67;;;12.20;22.70;;;;;;5042398;28;20406;-71
2023/01/06 01:08:56;;;;;;;4.60;2.97;;;12.20;22.60;;;;;;5054401;28;20406;-71
2023/01/06 01:14:07;;;;;;;5.60;3.00;;;12.20;21.80;;;;;;5048566;28;20445;-71
2023/01/06 01:16:33;;;;;;;5.07;2.60;;;12.20;21.10;;;;;;5047260;28;20427;-70
2023/01/06 01:18:59;;;;;;;5.43;2.50;;;12.20;22.20;;;;;;5032799;28;20968;-71
2023/01/06 01:21:25;;;;;;;3.90;2.60;;;12.20;23.20;;;;;;5032333;28;20260;-70
2023/01/06 01:23:50;;;;;;;4.83;2.40;;;12.10;23.70;;;;;;5059040;28;20184;-70
2023/01/06 01:26:16;;;;;;;4.60;3.10;;;12.10;24.20;;;;;;5050052;28;20530;-71
2023/01/06 01:28:41;;;;;;;3.63;2.80;;;12.50;25.30;;;;;;5031651;28;20205;-71
2023/01/06 01:31:07;;;;;;;5.37;2.80;;;12.20;26.20;;;;;;5044347;28;20670;-71
2023/01/06 01:33:33;;;;;;;2.90;2.60;;;12.20;24.80;;;;;;5051519;28;20192;-71
2023/01/06 01:36:05;;;;;;;3.10;2.80;;;12.20;25.10;;;;;;5028497;28;20169;-70
2023/01/06 01:38:30;;;;;;;4.17;2.50;;;12.20;24.00;;;;;;5051812;28;20192;-71
2023/01/06 01:40:56;;;;;;;4.00;2.87;;;12.20;24.20;;;;;;5048557;28;21135;-71
2023/01/06 01:43:21;;;;;;;4.60;2.87;;;12.30;23.90;;;;;;5050927;28;20255;-70
2023/01/06 01:45:52;;;;;;;4.60;2.60;;;12.30;23.00;;;;;;5050468;28;20185;-71
2023/01/06 01:48:30;;;;;;;2.90;2.67;;;12.30;22.50;;;;;;5050615;28;20193;-70
2023/01/06 01:50:58;;;;;;;3.17;2.40;;;12.30;21.70;;;;;;5030369;28;20411;-71
2023/01/06 01:53:28;;;;;;;3.90;3.10;;;12.30;21.40;;;;;;5053431;28;20530;-70
2023/01/06 01:55:57;;;;;;;4.30;2.60;;;12.30;22.30;;;;;;5049303;28;20431;-70
2023/01/06 01:58:32;;;;;;;5.10;2.57;;;12.30;23.20;;;;;;5051320;28;20451;-71
2023/01/06 02:00:57;;;;;;;4.10;2.70;;;12.20;23.40;;;;;;5030427;28;20470;-70
2023/01/06 02:03:24;;;;;;;3.40;2.70;;;12.20;23.40;;;;;;5048983;28;21063;-71
2023/01/06 02:05:54;;;;;;;2.80;2.20;;;12.30;24.60;;;;;;5049789;28;20524;-70
2023/01/06 02:08:51;;;;;;;3.37;2.33;;;12.30;23.90;;;;;;5049808;28;20548;-71
2023/01/06 02:11:16;;;;;;;3.40;2.57;;;12.30;24.20;;;;;;5005421;28;20572;-71
2023/01/06 02:13:46;;;;;;;7.73;2.40;;;12.30;24.40;;;;;;5049765;28;20436;-71
2023/01/06 02:16:41;;;;;;;3.43;2.07;;;12.20;24.50;;;;;;5031883;28;20743;-70
2023/01/06 02:19:22;;;;;;;4.00;2.33;;;12.20;25.00;;;;;;5046463;28;20427;-70
2023/01/06 02:22:31;;;;;;;2.47;2.10;;;12.30;24.50;;;;;;5049073;28;20455;-70
2023/01/06 02:25:16;;;;;;;4.93;2.50;;;12.30;23.40;;;;;;5048762;28;20419;-71
2023/01/06 02:28:00;;;;;;;3.20;2.40;;;12.30;22.80;;;;;;5009227;28;20423;-71
2023/01/06 02:30:49;;;;;;;3.27;2.40;;;12.40;22.40;;;;;;5049371;28;20427;-70
2023/01/06 02:33:30;;;;;;;5.10;2.83;;;12.40;23.80;;;;;;5046921;28;20797;-71
2023/01/06 02:36:23;;;;;;;2.40;2.20;;;12.20;28.30;;;;;;5030401;28;20802;-70
2023/01/06 02:39:00;;;;;;;5.40;2.33;;;12.20;39.80;;;;;;5050850;28;20462;-71
2023/01/06 02:41:29;;;;;;;2.83;2.40;;;12.10;39.80;;;;;;5026895;28;20439;-71
2023/01/06 02:43:59;;;;;;;3.30;2.67;;;12.00;39.60;;;;;;5030475;28;20758;-70
2023/01/06 02:46:52;;;;;;;3.27;2.80;;;12.00;39.60;;;;;;5048245;28;20415;-70
2023/01/06 02:49:29;;;;;;;4.60;2.57;;;12.00;39.70;;;;;;5048497;28;20534;-70
2023/01/06 02:52:29;;;;;;;6.87;3.13;;;12.00;39.60;;;;;;5028601;28;20435;-70
2023/01/06 02:55:01;;;;;;;2.93;2.63;;;11.90;39.50;;;;;;5049088;28;20424;-68
2023/01/06 02:57:44;;;;;;;5.43;3.47;;;11.80;39.60;;;;;;5048645;28;20539;-68
2023/01/06 03:00:24;;;;;;;4.07;3.00;;;11.80;39.50;;;;;;5030914;28;20811;-71
2023/01/06 03:02:56;;;;;;;5.53;2.70;;;11.90;39.60;;;;;;5048572;28;20454;-71
2023/01/06 03:05:23;;;;;;;3.87;2.87;;;11.90;39.60;;;;;;5048930;28;20463;-71
2023/01/06 03:07:50;;;;;;;4.77;2.93;;;11.90;39.60;;;;;;5049483;28;21032;-70
2023/01/06 03:10:20;;;;;;;4.37;2.90;;;11.90;39.50;;;;;;5048499;28;20400;-69
2023/01/06 03:12:56;;;;;;;3.83;2.80;;;11.90;39.60;;;;;;5046540;28;20428;-71
2023/01/06 03:15:23;;;;;;;4.33;2.93;;;11.90;39.70;;;;;;5044627;28;20790;-71
2023/01/06 03:17:49;;;;;;;3.63;2.93;;;11.90;39.50;;;;;;5046741;28;20788;-71
2023/01/06 03:20:15;;;;;;;3.27;2.57;;;11.90;39.70;;;;;;5048218;28;20427;-71
2023/01/06 03:22:41;;;;;;;4.87;3.20;;;11.90;39.60;;;;;;5056563;28;20631;-71
2023/01/06 03:25:07;;;;;;;5.73;3.27;;;11.80;39.50;;;;;;5047379;28;20226;-70
2023/01/06 03:27:33;;;;;;;4.93;3.10;;;11.80;39.40;;;;;;5030710;28;21064;-71
2023/01/06 03:29:59;;;;;;;3.90;3.07;;;12.90;40.50;;;;;;5047695;28;20431;-71
2023/01/06 03:32:27;;;;;;;7.13;3.10;;;11.80;39.40;;;;;;5046654;28;20431;-70
2023/01/06 03:35:10;;;;;;;3.47;2.90;;;11.80;39.40;;;;;;5049093;28;20411;-71
2023/01/06 03:37:54;;;;;;;4.67;3.10;;;11.80;39.60;;;;;;5029871;28;20543;-69
2023/01/06 03:40:38;;;;;;;5.67;3.00;;;11.80;39.50;;;;;;5049243;28;20468;-72
2023/01/06 03:43:26;;;;;;;5.00;3.20;;;11.80;39.50;;;;;;5028307;28;21012;-70
2023/01/06 03:46:05;;;;;;;5.30;3.00;;;11.80;39.50;;;;;;5045731;28;20484;-71
2023/01/06 03:48:33;;;;;;;4.47;2.97;;;11.70;39.40;;;;;;5048258;28;20461;-72
2023/01/06 03:51:07;;;;;;;3.80;3.00;;;11.70;39.40;;;;;;5051233;28;20403;-68
2023/01/06 03:53:39;;;;;;;2.97;2.70;;;11.60;39.30;;;;;;5033612;28;20438;-71
2023/01/06 03:56:21;;;;;;;4.33;3.03;;;11.60;39.30;;;;;;5039640;28;20427;-71
2023/01/06 03:58:52;;;;;;;3.83;3.30;;;11.60;39.30;;;;;;5048849;28;20439;-71
2023/01/06 04:01:19;;;;;;;5.77;2.80;;;11.60;39.40;;;;;;5045608;28;20968;-70
2023/01/06 04:03:54;;;;;;;2.87;2.57;;;11.60;39.40;;;;;;5048932;28;20528;-71
2023/01/06 04:06:20;;;;;;;5.03;2.90;;;11.70;39.40;;;;;;5046628;28;20962;-70
2023/01/06 04:08:45;;;;;;;4.10;3.00;;;11.70;39.30;;;;;;5049057;28;20607;-71
2023/01/06 04:13:55;;;;;;;3.90;2.70;;;11.70;39.30;;;;;;5046804;28;20188;-71
2023/01/06 04:16:20;;;;;;;3.43;2.80;;;11.70;39.30;;;;;;5048104;28;20415;-71
2023/01/06 04:18:46;;;;;;;3.40;2.70;;;11.70;39.30;;;;;;5045573;28;20230;-71
2023/01/06 04:21:12;;;;;;;4.70;2.60;;;11.70;39.30;;;;;;5047591;28;20209;-71
2023/01/06 04:23:37;;;;;;;3.63;2.53;;;11.70;39.20;;;;;;5055081;28;20198;-71
2023/01/06 04:26:03;;;;;;;3.73;2.87;;;11.80;38.90;;;;;;5047274;28;20177;-71
2023/01/06 04:28:28;;;;;;;3.40;2.20;;;11.70;39.30;;;;;;5048947;28;20204;-71
2023/01/06 04:30:58;;;;;;;4.93;2.70;;;11.80;37.70;;;;;;5027498;28;20277;-72
2023/01/06 04:33:23;;;;;;;3.07;2.47;;;11.70;36.00;;;;;;5047799;28;20270;-71
2023/01/06 04:35:49;;;;;;;3.73;2.90;;;11.70;39.30;;;;;;5046699;28;20929;-73
2023/01/06 04:38:14;;;;;;;2.40;2.20;;;11.70;36.80;;;;;;5048924;28;20696;-71
2023/01/06 04:40:42;;;;;;;3.93;2.57;;;11.70;36.10;;;;;;5043698;28;20177;-70
2023/01/06 04:43:12;;;;;;;2.30;2.10;;;11.70;39.30;;;;;;5047191;28;20201;-71
2023/01/06 04:45:39;;;;;;;2.40;2.20;;;11.70;33.90;;;;;;5029938;28;20420;-71
2023/01/06 04:48:05;;;;;;;2.77;2.53;;;11.70;33.90;;;;;;5047460;28;20913;-71
2023/01/06 04:50:31;;;;;;;3.70;2.20;;;11.80;33.00;;;;;;5047165;28;20442;-70
2023/01/06 04:52:57;;;;;;;2.23;2.03;;;11.70;34.60;;;;;;5054772;28;20424;-71
2023/01/06 04:55:23;;;;;;;2.50;2.30;;;11.70;35.90;;;;;;5047152;28;20438;-71
2023/01/06 04:57:49;;;;;;;3.17;2.57;;;11.70;36.90;;;;;;5071061;22;20217;-73
2023/01/06 05:00:15;;;;;;;3.03;2.27;;;11.70;39.20;;;;;;5049396;28;20161;-71
2023/01/06 05:02:40;;;;;;;2.77;2.30;;;11.70;39.30;;;;;;5047723;28;20654;-71
2023/01/06 05:05:06;;;;;;;4.50;2.60;;;11.70;39.20;;;;;;5048135;28;20507;-68
2023/01/06 05:07:32;;;;;;;2.90;2.13;;;11.70;39.30;;;;;;5051790;28;20272;-68
2023/01/06 05:09:57;;;;;;;5.43;2.37;;;11.70;39.20;;;;;;5043550;28;20203;-69
2023/01/06 05:12:23;;;;;;;2.60;2.10;;;11.70;35.40;;;;;;5047200;28;20173;-68
2023/01/06 05:14:48;;;;;;;2.40;2.20;;;11.70;34.80;;;;;;5038479;28;20185;-68
2023/01/06 05:17:14;;;;;;;2.97;2.10;;;11.70;39.20;;;;;;5048508;28;20264;-69
2023/01/06 05:19:43;;;;;;;3.60;2.50;;;11.70;39.30;;;;;;5049452;28;20181;-72
2023/01/06 05:22:10;;;;;;;2.90;2.47;;;11.70;39.30;;;;;;5058070;28;20181;-68
2023/01/06 05:24:35;;;;;;;2.87;2.60;;;11.60;39.20;;;;;;5048898;28;20430;-68
2023/01/06 05:27:01;;;;;;;2.20;2.00;;;11.60;39.30;;;;;;5046901;28;20498;-69
2023/01/06 05:29:26;;;;;;;3.07;2.40;;;11.60;39.30;;;;;;5048545;28;21146;-69
2023/01/06 05:31:53;;;;;;;2.70;2.10;;;11.60;39.20;;;;;;5050400;28;20185;-69
2023/01/06 05:34:18;;;;;;;2.50;2.17;;;11.70;39.30;;;;;;5042282;28;20197;-68
2023/01/06 05:36:44;;;;;;;2.50;2.30;;;11.70;39.30;;;;;;5051223;28;20424;-69
2023/01/06 05:39:09;;;;;;;3.73;2.57;;;11.80;39.40;;;;;;5046044;28;20334;-69
2023/01/06 05:41:35;;;;;;;3.03;2.30;;;11.80;39.50;;;;;;5048324;28;20272;-72
2023/01/06 05:44:01;;;;;;;3.77;2.80;;;11.80;36.40;;;;;;5044515;28;20184;-69
2023/01/06 05:46:26;;;;;;;2.20;2.00;;;11.80;36.10;;;;;;5060648;28;20194;-68
2023/01/06 05:48:52;;;;;;;3.90;2.40;;;11.80;39.30;;;;;;5050596;28;20279;-69
2023/01/06 05:51:17;;;;;;;3.13;2.43;;;11.80;37.80;;;;;;5051105;28;20543;-68
2023/01/06 05:53:45;;;;;;;2.97;2.67;;;11.70;38.00;;;;;;5049282;28;20177;-69
2023/01/06 05:56:14;;;;;;;4.60;2.67;;;11.70;39.40;;;;;;5048425;28;20672;-69
2023/01/06 05:58:43;;;;;;;6.53;2.80;;;11.70;39.40;;;;;;5040372;28;20827;-68
2023/01/06 06:01:25;;;;;;;2.73;2.40;;;11.70;39.40;;;;;;5044337;28;20440;-68
2023/01/06 06:03:52;;;;;;;2.97;2.60;;;11.70;39.40;;;;;;5057247;28;20454;-72
2023/01/06 06:06:21;;;;;;;4.00;2.63;;;11.70;39.30;;;;;;5041107;28;20518;-68
2023/01/06 06:08:47;;;;;;;5.50;2.90;;;11.70;39.40;;;;;;5051613;28;20459;-69
2023/01/06 06:11:15;;;;;;;2.50;2.27;;;11.70;39.40;;;;;;5039854;28;20459;-70
2023/01/06 06:13:49;;;;;;;2.90;2.50;;;11.70;39.40;;;;;;5066185;28;20180;-68
2023/01/06 06:16:17;;;;;;;2.80;2.50;;;11.70;39.30;;;;;;5053830;28;20577;-69
2023/01/06 06:18:43;;;;;;;3.10;2.60;;;11.70;39.30;;;;;;5043469;28;21054;-70
2023/01/06 06:21:11;;;;;;;3.40;2.70;;;11.70;39.30;;;;;;5054403;28;20415;-72
2023/01/06 06:23:36;;;;;;;3.17;2.87;;;11.70;39.30;;;;;;5051739;28;20557;-67
2023/01/06 06:26:02;;;;;;;4.00;3.10;;;11.60;39.20;;;;;;5044359;28;20877;-70
2023/01/06 06:28:32;;;;;;;4.90;2.83;;;11.70;39.30;;;;;;5049582;28;20251;-69
2023/01/06 06:31:07;;;;;;;2.67;2.47;;;11.60;39.40;;;;;;5043794;28;20173;-69
2023/01/06 06:33:33;;;;;;;4.30;2.47;;;11.60;39.30;;;;;;5055455;28;20941;-69
2023/01/06 06:36:00;;;;;;;3.60;2.83;;;11.60;39.30;;;;;;5045529;28;20466;-70
2023/01/06 06:38:26;;;;;;;4.67;2.70;;;11.60;39.20;;;;;;5050417;28;20667;-68
2023/01/06 06:40:51;;;;;;;3.93;2.30;;;11.60;39.20;;;;;;5047368;28;20443;-69
2023/01/06 06:43:17;;;;;;;2.40;2.20;;;11.50;38.80;;;;;;5053648;28;20209;-71
2023/01/06 06:45:46;;;;;;;5.53;2.63;;;11.60;39.30;;;;;;5049593;28;20196;-69
2023/01/06 06:48:13;;;;;;;3.30;2.77;;;11.60;39.20;;;;;;5047003;28;21111;-69
2023/01/06 06:50:38;;;;;;;3.10;2.57;;;11.60;39.30;;;;;;5043176;28;20622;-70
2023/01/06 06:53:04;;;;;;;5.00;2.83;;;11.60;39.20;;;;;;5041539;28;20843;-70
2023/01/06 06:55:29;;;;;;;7.50;2.83;;;11.60;39.30;;;;;;5045139;28;20174;-71
2023/01/06 06:57:55;;;;;;;3.27;2.30;;;11.60;39.20;;;;;;5049497;28;20270;-68
2023/01/06 07:00:20;;;;;;;3.90;2.33;;;11.60;39.00;;;;;;5047246;28;20173;-71
2023/01/06 07:02:49;;;;;;;2.40;2.20;;;11.60;39.00;;;;;;5049440;28;20213;-71
2023/01/06 07:05:15;;;;;;;2.57;2.37;;;11.60;38.10;;;;;;5048559;28;20252;-70
2023/01/06 07:07:41;;;;;;;2.87;2.53;;;11.60;33.70;;;;;;5043523;28;20752;-70
2023/01/06 07:10:07;;;;;;;3.27;2.23;;;11.60;31.20;;;;;;5050049;28;20409;-69
2023/01/06 07:12:33;;;;;;;5.60;2.37;;;11.70;30.90;;;;;;5042185;28;20440;-70
2023/01/06 07:14:58;;;;;;;3.10;2.50;;;11.60;30.00;;;;;;5049931;28;20412;-72
2023/01/06 07:17:27;;;;;;;3.57;2.30;;;11.70;30.60;;;;;;5039769;28;20212;-68
2023/01/06 07:19:53;;;;;;;2.70;2.20;;;11.60;30.90;;;;;;5049572;28;20177;-71
2023/01/06 07:22:19;;;;;;;3.10;2.20;;;11.60;28.10;;;;;;5046416;28;20520;-69
2023/01/06 07:24:44;;;;;;;3.57;2.60;;;11.50;27.40;;;;;;5049479;28;20703;-69
2023/01/06 07:27:10;;;;;;;2.40;2.20;;;11.50;31.30;;;;;;5044575;28;20196;-69
2023/01/06 07:29:35;;;;;;;2.80;2.40;;;11.50;34.60;;;;;;5043362;28;20172;-69
2023/01/06 07:32:01;;;;;;;2.60;2.10;;;11.40;34.80;;;;;;5047640;28;20215;-68
2023/01/06 07:34:26;;;;;;;2.80;2.00;;;11.40;29.10;;;;;;5044510;28;20292;-70
2023/01/06 07:36:52;;;;;;;2.10;1.83;;;11.40;26.80;;;;;;5046682;28;20180;-69
2023/01/06 07:39:17;;;;;;;2.83;1.70;;;11.80;25.60;;;;;;5043749;28;20274;-68
2023/01/06 07:41:43;;;;;;;4.50;2.00;;;11.40;22.00;;;;;;5048000;28;20508;-68
2023/01/06 07:44:08;;;;;;;2.27;1.70;;;11.50;23.50;;;;;;5042307;28;20189;-67
2023/01/06 07:46:34;;;;;;;5.03;1.87;;;11.50;20.10;;;;;;5048483;28;20185;-69
2023/01/06 07:48:59;;;;;;;2.70;2.13;;;11.50;18.60;;;;;;5041440;28;20221;-68
2023/01/06 07:51:25;;;;;;;2.10;1.67;;;11.40;16.70;;;;;;5056678;28;20199;-69
2023/01/06 07:53:50;;;;;;;2.40;1.70;;;11.50;14.20;;;;;;5044455;28;20188;-69
2023/01/06 07:56:16;;;;;;;3.00;2.00;;;11.50;13.70;;;;;;5048183;28;20193;-65
2023/01/06 07:58:41;;;;;;;1.60;1.30;;;11.50;6.90;;;;;;5049409;28;20308;-69
2023/01/06 08:01:07;;;;;;;2.43;1.47;;;11.60;2.20;;;;;;5042644;28;20546;-69
2023/01/06 08:03:33;;;;;;;2.53;1.37;;;11.60;1.00;;;;;;5049435;28;20552;-69
2023/01/06 14:15:25;;;;;;;1.50;1.30;;;11.60;1.00;;;;;;5065582;28;20589;-70
2023/01/06 14:17:50;;;;;;;3.80;3.33;;;11.70;1.00;;;;;;5042368;28;20452;-70
2023/01/06 14:20:27;;;;;;;8.27;5.47;;;11.80;1.00;;;;;;5046378;28;20507;-71
2023/01/06 14:23:06;;;;;;;2.50;2.07;;;11.90;1.00;;;;;;5047415;28;20254;-70
2023/01/06 14:25:41;;;;;;;5.10;4.10;;;12.00;1.00;;;;;;5043874;28;20412;-71
2023/01/06 14:28:25;;;;;;;1.40;1.30;;;12.20;1.00;;;;;;5047484;28;20829;-70
2023/01/06 14:31:23;;;;;;;9.93;6.70;;;12.20;1.00;;;;;;5045134;28;20415;-71
2023/01/06 14:33:54;;;;;;;7.40;5.03;;;12.40;1.00;;;;;;5037866;28;20460;-70
2023/01/06 14:36:21;;;;;;;1.97;1.43;;;12.40;1.00;;;;;;5043917;28;20897;-71
2023/01/06 14:38:59;;;;;;;1.80;1.70;;;12.50;1.00;;;;;;5046324;28;20447;-71
2023/01/06 14:41:45;;;;;;;38.23;15.33;;;12.50;1.00;;;;;;5039991;28;20799;-74
2023/01/06 14:44:18;;;;;;;13.07;4.00;;;12.80;1.00;;;;;;5057792;28;20434;-72
2023/01/06 14:46:51;;;;;;;11.40;6.17;;;13.30;1.00;;;;;;5050561;28;20904;-72
2023/01/06 14:49:30;;;;;;;9.60;4.77;;;13.60;1.00;;;;;;5052129;28;20451;-73
2023/01/06 14:51:59;;;;;;;3.43;3.10;;;13.80;1.00;;;;;;5044522;28;20601;-72
2023/01/06 14:54:29;;;;;;;3.57;2.60;;;13.70;1.00;;;;;;5044041;28;20468;-73
2023/01/06 14:56:57;;;;;;;1.47;1.37;;;13.70;1.00;;;;;;5046755;28;20443;-73
2023/01/06 14:59:23;;;;;;;2.57;2.30;;;13.70;1.00;;;;;;5045368;28;20463;-72
2023/01/06 15:02:15;;;;;;;1.70;1.60;;;13.60;1.00;;;;;;5040363;28;20783;-73
2023/01/06 15:04:42;;;;;;;2.17;1.40;;;13.50;1.00;;;;;;5044781;28;20985;-73
2023/01/06 15:07:17;;;;;;;1.97;1.77;;;13.50;1.00;;;;;;5046259;28;20934;-73
2023/01/06 15:09:44;;;;;;;2.57;1.30;;;13.70;1.00;;;;;;5042911;28;20471;-69
2023/01/06 15:12:25;;;;;;;1.63;1.43;;;13.70;1.00;;;;;;5040804;28;20443;-71
2023/01/06 15:14:51;;;;;;;3.90;1.47;;;13.80;1.00;;;;;;5043878;28;20513;-71
2023/01/06 15:17:17;;;;;;;1.60;1.20;;;14.10;1.00;;;;;;5041937;28;20455;-72
2023/01/06 15:19:44;;;;;;;1.40;1.27;;;14.10;1.00;;;;;;5046433;28;20178;-73
2023/01/06 15:22:12;;;;;;;3.20;1.30;;;14.00;1.00;;;;;;5055101;28;20548;-73
2023/01/06 15:24:41;;;;;;;1.30;1.20;;;14.00;1.00;;;;;;5043676;28;20607;-73
2023/01/06 15:27:13;;;;;;;1.60;1.40;;;14.00;1.00;;;;;;5024968;28;20437;-73
2023/01/06 15:29:54;;;;;;;1.40;1.20;;;13.80;1.00;;;;;;5025100;28;20492;-73
2023/01/06 15:32:24;;;;;;;1.90;1.50;;;13.90;1.00;;;;;;5029216;28;20440;-73
2023/01/06 15:34:50;;;;;;;1.30;1.20;;;14.40;1.00;;;;;;5032750;28;20464;-73
2023/01/06 15:37:24;;;;;;;1.80;1.40;;;13.70;1.00;;;;;;5030174;28;20424;-74
2023/01/06 15:39:51;;;;;;;1.43;1.30;;;13.80;1.00;;;;;;5033977;28;20423;-73
2023/01/06 15:42:21;;;;;;;1.33;1.20;;;13.60;1.00;;;;;;5027177;28;20776;-72
2023/01/06 15:45:01;;;;;;;2.23;1.40;;;13.80;1.00;;;;;;5029248;28;20536;-72
2023/01/06 15:47:43;;;;;;;1.90;1.30;;;13.90;1.00;;;;;;5028332;28;20510;-72
2023/01/06 15:50:18;;;;;;;1.60;1.20;;;13.50;1.00;;;;;;5023113;28;20791;-71
2023/01/06 15:52:52;;;;;;;1.30;1.20;;;13.10;1.00;;;;;;5030252;28;20437;-71
2023/01/06 15:55:27;;;;;;;2.47;1.57;;;12.80;1.00;;;;;;5030697;28;20855;-70
2023/01/06 15:58:13;;;;;;;1.80;1.50;;;12.60;1.00;;;;;;5029574;28;21118;-71
2023/01/06 16:01:08;;;;;;;1.40;1.30;;;12.50;1.00;;;;;;5027393;28;20431;-71
2023/01/06 16:03:35;;;;;;;1.90;1.23;;;12.40;1.00;;;;;;5028266;28;20429;-71
2023/01/06 16:06:09;;;;;;;1.20;1.10;;;12.40;1.00;;;;;;5022619;28;20548;-71
2023/01/06 16:08:35;;;;;;;1.57;1.40;;;12.40;1.00;;;;;;5028021;28;20453;-70
2023/01/06 16:11:15;;;;;;;1.73;1.27;;;12.30;1.00;;;;;;5025772;28;20440;-70
2023/01/06 16:13:53;;;;;;;1.60;1.20;;;12.30;1.00;;;;;;5025989;28;20260;-70
2023/01/06 16:16:18;;;;;;;3.10;1.40;;;12.30;1.00;;;;;;5025323;28;20432;-70
2023/01/06 16:18:45;;;;;;;1.73;1.20;;;12.30;1.00;;;;;;5027317;28;20506;-72
2023/01/06 16:21:26;;;;;;;2.37;1.30;;;12.20;1.00;;;;;;5029459;28;20178;-69
2023/01/06 16:23:55;;;;;;;1.23;1.07;;;12.10;1.00;;;;;;5037920;28;20486;-70
2023/01/06 16:26:25;;;;;;;3.00;1.57;;;12.20;1.00;;;;;;5029832;28;20456;-71
2023/01/06 16:28:56;;;;;;;1.70;1.60;;;12.20;1.00;;;;;;5023536;28;22089;-71
2023/01/06 16:31:38;;;;;;;5.03;2.83;;;12.20;1.00;;;;;;5029068;28;20869;-71
2023/01/06 16:34:27;;;;;;;2.10;1.70;;;12.20;1.00;;;;;;5028092;28;20460;-70
2023/01/06 16:36:57;;;;;;;1.30;1.20;;;12.20;1.00;;;;;;5028903;28;20919;-70
2023/01/06 16:39:23;;;;;;;1.40;1.30;;;12.10;1.00;;;;;;5029275;28;20444;-71
2023/01/06 16:41:58;;;;;;;1.80;1.60;;;12.10;1.00;;;;;;5023146;28;20429;-70
2023/01/06 16:44:33;;;;;;;1.90;1.50;;;12.10;1.00;;;;;;5026795;28;20498;-70
2023/01/06 16:46:59;;;;;;;1.70;1.30;;;12.20;1.00;;;;;;5029649;28;20470;-70
2023/01/06 16:49:25;;;;;;;2.47;1.70;;;12.10;1.00;;;;;;5023162;28;20975;-70
2023/01/06 16:51:51;;;;;;;4.30;1.80;;;12.10;1.00;;;;;;5029675;28;20611;-70
2023/01/06 16:54:17;;;;;;;2.40;2.20;;;12.10;1.00;;;;;;5027037;28;20205;-70
2023/01/06 16:56:44;;;;;;;2.23;1.50;;;12.10;1.00;;;;;;5040357;28;21004;-70
2023/01/06 16:59:15;;;;;;;1.33;1.23;;;11.90;1.00;;;;;;5057406;22;20412;-70
2023/01/06 17:01:45;;;;;;;14.70;9.10;;;12.00;1.00;;;;;;5008208;28;20422;-70
2023/01/06 17:04:12;;;;;;;4.47;3.03;;;11.90;1.00;;;;;;5015307;28;20480;-70
2023/01/06 17:06:39;;;;;;;3.10;2.03;;;11.90;1.00;;;;;;5009389;28;20425;-70
2023/01/06 17:09:31;;;;;;;1.67;1.50;;;12.00;1.00;;;;;;5003625;28;20440;-70
2023/01/06 17:11:57;;;;;;;2.77;1.57;;;11.90;1.00;;;;;;4983421;28;20447;-70
2023/01/06 17:14:23;;;;;;;1.93;1.60;;;12.00;1.00;;;;;;4988168;28;20472;-71
2023/01/06 17:16:49;;;;;;;1.37;1.23;;;11.90;1.00;;;;;;4986138;28;20608;-70
2023/01/06 17:19:25;;;;;;;3.93;1.37;;;12.00;1.00;;;;;;4989219;28;20250;-70
2023/01/06 17:22:01;;;;;;;1.40;1.17;;;12.10;1.00;;;;;;4987754;28;20175;-70
2023/01/06 17:24:29;;;;;;;1.50;1.30;;;12.10;1.00;;;;;;4992438;28;20434;-70
2023/01/06 17:26:57;;;;;;;2.77;1.80;;;12.10;1.00;;;;;;4989845;28;20422;-70
2023/01/06 17:29:26;;;;;;;1.97;1.63;;;12.20;1.00;;;;;;4988942;28;20909;-70
2023/01/06 17:31:55;;;;;;;3.27;2.40;;;12.10;1.00;;;;;;4987243;28;20758;-69
2023/01/06 17:34:28;;;;;;;3.43;1.93;;;12.10;1.00;;;;;;4982906;28;20455;-70
2023/01/06 17:36:55;;;;;;;2.53;1.57;;;12.20;1.00;;;;;;4987546;28;20497;-71
2023/01/06 17:39:24;;;;;;;4.07;3.07;;;12.20;1.00;;;;;;4983905;28;20531;-68
2023/01/06 17:42:16;;;;;;;1.87;1.60;;;12.20;1.00;;;;;;4985290;28;20906;-70
2023/01/06 17:44:50;;;;;;;5.03;2.10;;;12.20;1.00;;;;;;4976870;28;20434;-71
2023/01/06 17:47:16;;;;;;;2.07;1.50;;;12.20;1.00;;;;;;4988375;28;20430;-71
2023/01/06 17:49:58;;;;;;;1.87;1.70;;;12.20;1.00;;;;;;4989596;28;20500;-71
2023/01/06 17:52:38;;;;;;;11.07;6.40;;;12.20;1.00;;;;;;4987371;28;20175;-71
2023/01/06 17:55:43;;;;;;;9.40;6.17;;;12.20;1.00;;;;;;4988402;28;20872;-70
2023/01/06 17:58:17;;;;;;;9.20;5.83;;;12.10;1.00;;;;;;4988162;28;20422;-71
2023/01/06 18:00:43;;;;;;;4.03;2.80;;;12.00;1.00;;;;;;4987385;28;20476;-69
2023/01/06 18:03:16;;;;;;;5.17;2.73;;;12.00;1.00;;;;;;4988697;28;20473;-71
2023/01/06 18:05:43;;;;;;;3.50;2.27;;;12.00;1.00;;;;;;4988456;28;20461;-70
2023/01/06 18:08:13;;;;;;;2.57;2.20;;;12.10;1.00;;;;;;4989969;28;20430;-72
2023/01/06 18:10:53;;;;;;;3.03;2.10;;;12.10;1.00;;;;;;4985801;28;20900;-71
2023/01/06 18:13:22;;;;;;;2.30;1.70;;;12.10;1.00;;;;;;4988618;28;20454;-71
2023/01/06 18:16:13;;;;;;;3.40;1.30;;;12.10;1.00;;;;;;4989023;28;20996;-70
2023/01/06 18:18:40;;;;;;;1.50;1.40;;;12.10;1.00;;;;;;4983132;28;20590;-72
2023/01/06 18:21:17;;;;;;;3.03;1.60;;;12.10;1.00;;;;;;4991857;28;20441;-71
2023/01/06 18:23:45;;;;;;;1.63;1.40;;;12.00;1.00;;;;;;4999457;28;20437;-70
2023/01/06 18:26:26;;;;;;;1.80;1.30;;;11.90;1.00;;;;;;4982645;28;20438;-71
2023/01/06 18:29:18;;;;;;;4.20;2.47;;;11.90;1.00;;;;;;4989043;28;21046;-71
2023/01/06 18:31:46;;;;;;;4.40;1.90;;;11.90;1.00;;;;;;4973058;28;20496;-71
2023/01/06 18:34:26;;;;;;;1.60;1.40;;;11.90;1.00;;;;;;4989413;28;20450;-71
2023/01/06 18:36:54;;;;;;;2.20;1.60;;;11.90;1.00;;;;;;4988092;28;20442;-71
2023/01/06 18:39:28;;;;;;;2.27;2.00;;;11.90;1.00;;;;;;4989028;28;20517;-68
2023/01/06 18:42:30;;;;;;;2.40;1.50;;;11.90;1.00;;;;;;4986864;28;20499;-70
2023/01/06 18:45:01;;;;;;;3.77;2.33;;;11.90;1.00;;;;;;4986909;28;20518;-70
2023/01/06 18:47:29;;;;;;;2.13;1.73;;;11.80;1.00;;;;;;4987297;28;20422;-71
2023/01/06 18:50:01;;;;;;;1.53;1.43;;;11.80;1.00;;;;;;4989158;28;20988;-70
2023/01/06 18:52:36;;;;;;;1.83;1.50;;;11.80;1.00;;;;;;4993010;28;21005;-71
2023/01/06 18:55:17;;;;;;;2.50;1.60;;;11.80;1.00;;;;;;4988694;28;20553;-70
2023/01/06 18:57:44;;;;;;;3.10;1.60;;;11.90;1.00;;;;;;4987326;28;20434;-70
2023/01/06 19:00:32;;;;;;;2.00;1.50;;;11.90;1.00;;;;;;4987869;28;20472;-71
2023/01/06 19:03:32;;;;;;;2.57;1.60;;;11.90;1.00;;;;;;4990358;28;20445;-70
2023/01/06 19:06:10;;;;;;;2.13;1.63;;;11.80;1.00;;;;;;4959068;28;20497;-72
2023/01/06 19:08:39;;;;;;;2.97;1.63;;;11.80;1.00;;;;;;4991932;28;20437;-71
2023/01/06 19:11:14;;;;;;;1.67;1.30;;;11.80;1.00;;;;;;4990932;28;20438;-70
2023/01/06 19:13:40;;;;;;;3.60;1.40;;;11.80;1.00;;;;;;4991606;28;20791;-70
2023/01/06 19:16:24;;;;;;;3.23;1.40;;;11.80;1.00;;;;;;4990843;28;20442;-73
2023/01/06 19:18:49;;;;;;;1.67;1.57;;;11.80;1.00;;;;;;4989721;28;20175;-70
2023/01/06 19:21:15;;;;;;;3.37;1.30;;;11.80;1.00;;;;;;4988583;28;20445;-70
2023/01/06 19:23:40;;;;;;;1.40;1.30;;;11.80;1.00;;;;;;4991794;28;20571;-72